Flight Track Log - Related Links

Times and Time Zones

All times are in EDT time to prevent confusion due to time zone crossing. See the CDG4769 flight status page for this flight to view local times or setup timezone preferences in your user account.

Time Position Orientation Groundspeed Altitude Reporting Facility
EDT Latitude Longitude Course Direction KTS MPH feet Rate Location/Type
Sun 08:05:00 PM 24.6320 117.0828 276° West  Level Estimated
Sun 08:06:00 PM 24.6397 116.9878 275° West  Level Estimated
Sun 08:07:00 PM 24.6472 116.8927 275° West  Level Estimated
Sun 08:08:00 PM 24.6548 116.7976 275° West  Level Estimated
Sun 08:09:00 PM 24.6622 116.7025 275° West  Level Estimated
Sun 08:10:00 PM 24.6696 116.6074 275° West  Level Estimated
Sun 08:11:00 PM 24.6770 116.5123 275° West  Level Estimated
Sun 08:12:00 PM 24.6843 116.4172 275° West  Level Estimated
Sun 08:13:00 PM 24.6915 116.3220 275° West  Level Estimated
Sun 08:14:00 PM 24.6987 116.2269 275° West  Level Estimated
Sun 08:15:00 PM 24.7057 116.1317 275° West  Level Estimated
Sun 08:16:00 PM 24.7128 116.0366 275° West  Level Estimated
Sun 08:17:00 PM 24.7198 115.9414 275° West  Level Estimated
Sun 08:18:00 PM 24.7267 115.8462 275° West  Level Estimated
Sun 08:19:00 PM 24.7336 115.7510 275° West  Level Estimated
Sun 08:20:00 PM 24.7404 115.6557 275° West  Level Estimated
Sun 08:21:00 PM 24.7471 115.5605 274° West  Level Estimated
Sun 08:22:00 PM 24.7538 115.4653 274° West  Level Estimated
Sun 08:23:00 PM 24.7604 115.3700 274° West  Level Estimated
Sun 08:24:00 PM 24.7670 115.2748 274° West  Level Estimated
Sun 08:25:00 PM 24.7735 115.1795 274° West  Level Estimated
Sun 08:26:00 PM 24.7799 115.0842 274° West  Level Estimated
Sun 08:27:00 PM 24.7863 114.9889 274° West  Level Estimated
Sun 08:28:00 PM 24.7926 114.8936 274° West  Level Estimated
Sun 08:29:00 PM 24.7989 114.7983 274° West  Level Estimated
Sun 08:30:00 PM 24.8051 114.7030 274° West  Level Estimated
Sun 08:31:00 PM 24.8112 114.6077 274° West  Level Estimated
Sun 08:32:00 PM 24.8173 114.5124 274° West  Level Estimated
Sun 08:33:00 PM 24.8233 114.4170 274° West  Level Estimated
Sun 08:34:00 PM 24.8293 114.3217 274° West  Level Estimated
Sun 08:35:00 PM 24.8352 114.2263 274° West  Level Estimated
Sun 08:36:00 PM 24.8410 114.1309 274° West  Level Estimated
Sun 08:37:00 PM 24.8468 114.0356 274° West  Level Estimated
Sun 08:38:00 PM 24.8525 113.9402 274° West  Level Estimated
Sun 08:39:00 PM 24.8581 113.8448 274° West  Level Estimated
Sun 08:40:00 PM 24.8637 113.7494 274° West  Level Estimated
Sun 08:41:00 PM 24.8693 113.6539 274° West  Level Estimated
Sun 08:42:00 PM 24.8748 113.5585 274° West  Level Estimated
Sun 08:43:00 PM 24.8802 113.4631 274° West  Level Estimated
Sun 08:44:00 PM 24.8855 113.3677 274° West  Level Estimated
Sun 08:45:00 PM 24.8908 113.2722 274° West  Level Estimated
Sun 08:46:00 PM 24.8960 113.1767 273° West  Level Estimated
Sun 08:47:00 PM 24.9012 113.0813 273° West  Level Estimated
Sun 08:48:00 PM 24.9063 112.9858 273° West  Level Estimated
Sun 08:49:00 PM 24.9114 112.8903 273° West  Level Estimated
Sun 08:50:00 PM 24.9163 112.7948 273° West  Level Estimated
Sun 08:51:00 PM 24.9213 112.6993 273° West  Level Estimated
Sun 08:52:00 PM 24.9261 112.6038 273° West  Level Estimated
Sun 08:53:00 PM 24.9309 112.5083 273° West  Level Estimated
Sun 08:54:00 PM 24.9357 112.4128 273° West  Level Estimated
Sun 08:55:00 PM 24.9404 112.3173 273° West  Level Estimated
Sun 08:56:00 PM 24.9450 112.2217 273° West  Level Estimated
Sun 08:57:00 PM 24.9496 112.1262 273° West  Level Estimated
Sun 08:58:00 PM 24.9541 112.0307 273° West  Level Estimated
Sun 08:59:00 PM 24.9585 111.9351 273° West  Level Estimated
Sun 09:00:00 PM 24.9629 111.8395 273° West  Level Estimated
Sun 09:01:00 PM 24.9672 111.7440 273° West  Level Estimated
Sun 09:02:00 PM 24.9715 111.6484 273° West  Level Estimated
Sun 09:03:00 PM 24.9756 111.5528 273° West  Level Estimated
Sun 09:04:00 PM 24.9798 111.4572 273° West  Level Estimated
Sun 09:05:00 PM 24.9839 111.3616 273° West  Level Estimated
Sun 09:06:00 PM 24.9879 111.2660 273° West  Level Estimated
Sun 09:07:00 PM 24.9918 111.1704 273° West  Level Estimated
Sun 09:08:00 PM 24.9957 111.0748 273° West  Level Estimated
Sun 09:09:00 PM 24.9995 110.9792 273° West  Level Estimated
Sun 09:10:00 PM 25.0033 110.8836 273° West  Level Estimated
Sun 09:11:00 PM 25.0070 110.7879 272° West  Level Estimated
Sun 09:12:00 PM 25.0107 110.6923 272° West  Level Estimated
Sun 09:13:00 PM 25.0142 110.5967 272° West  Level Estimated
Sun 09:14:00 PM 25.0178 110.5010 272° West  Level Estimated
Sun 09:15:00 PM 25.0212 110.4054 272° West  Level Estimated
Sun 09:16:00 PM 25.0246 110.3097 272° West  Level Estimated
Sun 09:17:00 PM 25.0280 110.2141 272° West  Level Estimated
Sun 09:18:00 PM 25.0312 110.1184 272° West  Level Estimated
Sun 09:19:00 PM 25.0345 110.0227 272° West  Level Estimated
Sun 09:20:00 PM 25.0376 109.9270 272° West  Level Estimated
Sun 09:21:00 PM 25.0407 109.8313 272° West  Level Estimated
Sun 09:22:00 PM 25.0438 109.7357 272° West  Level Estimated
Sun 09:23:00 PM 25.0467 109.6400 272° West  Level Estimated
Sun 09:24:00 PM 25.0496 109.5443 272° West  Level Estimated
Sun 09:25:00 PM 25.0525 109.4486 272° West  Level Estimated
Sun 09:26:00 PM 25.0553 109.3529 272° West  Level Estimated
Sun 09:27:00 PM 25.0580 109.2571 272° West  Level Estimated
Sun 09:28:00 PM 25.0607 109.1614 272° West  Level Estimated
Sun 09:29:00 PM 25.0633 109.0657 272° West  Level Estimated
Sun 09:30:00 PM 25.0658 108.9700 272° West  Level Estimated
Sun 09:31:00 PM 25.0683 108.8743 272° West  Level Estimated
Sun 09:32:00 PM 25.0707 108.7785 272° West  Level Estimated
Sun 09:33:00 PM 25.0731 108.6828 272° West  Level Estimated
Sun 09:34:00 PM 25.0754 108.5871 272° West  Level Estimated
Sun 09:35:00 PM 25.0776 108.4913 271° West  Level Estimated
Sun 09:36:00 PM 25.0798 108.3956 271° West  Level Estimated
Sun 09:37:00 PM 25.0819 108.2998 271° West  Level Estimated
Sun 09:38:00 PM 25.0839 108.2041 271° West  Level Estimated
Sun 09:39:00 PM 25.0859 108.1083 271° West  Level Estimated
Sun 09:40:00 PM 25.0879 108.0126 271° West  Level Estimated
Sun 09:41:00 PM 25.0897 107.9168 271° West  Level Estimated
Sun 09:42:00 PM 25.0915 107.8210 271° West  Level Estimated
Sun 09:43:00 PM 25.0933 107.7253 271° West  Level Estimated
Sun 09:44:00 PM 25.0950 107.6295 271° West  Level Estimated
Sun 09:45:00 PM 25.0966 107.5337 271° West  Level Estimated
Sun 09:46:00 PM 25.0981 107.4380 271° West  Level Estimated
Sun 09:47:00 PM 25.0996 107.3422 271° West  Level Estimated
Sun 09:48:00 PM 25.1011 107.2464 271° West  Level Estimated
Sun 09:49:00 PM 25.1024 107.1506 271° West  Level Estimated
Sun 09:50:00 PM 25.1038 107.0548 271° West  Level Estimated
Sun 09:51:00 PM 25.1050 106.9591 271° West  Level Estimated
Sun 09:52:00 PM 25.1062 106.8633 271° West  Level Estimated
Sun 09:53:00 PM 25.1073 106.7675 271° West  Level Estimated
Sun 09:54:00 PM 25.1084 106.6717 271° West  Level Estimated
Sun 09:55:00 PM 25.1094 106.5759 271° West  Level Estimated
Sun 09:56:00 PM 25.1104 106.4801 271° West  Level Estimated
Sun 09:57:00 PM 25.1112 106.3843 271° West  Level Estimated
Sun 09:58:00 PM 25.1121 106.2885 271° West  Level Estimated
Sun 09:59:00 PM 25.1128 106.1927 271° West  Level Estimated
Sun 10:00:00 PM 25.1135 106.0969 270° West  Level Estimated
Sun 10:01:00 PM 25.1142 106.0011 270° West  Level Estimated
Sun 10:02:00 PM 25.1147 105.9053 270° West  Level Estimated
Sun 10:03:00 PM 25.1152 105.8095 270° West  Level Estimated
Sun 10:04:00 PM 25.1157 105.7137 270° West  Level Estimated
Sun 10:05:00 PM 25.1161 105.6179 270° West  Level Estimated
Sun 10:06:00 PM 25.1164 105.5221 270° West  Level Estimated
Sun 10:07:00 PM 25.1167 105.4263 270° West  Level Estimated
Sun 10:08:00 PM 25.1169 105.3305 270° West  Level Estimated
Sun 10:09:00 PM 25.1170 105.2347 270° West  Level Estimated
Sun 10:10:00 PM 25.1171 105.1389 270° West  Level Estimated
Sun 10:11:00 PM 25.1171 105.0431 270° West  Level Estimated
Sun 10:12:00 PM 25.1171 104.9473 270° West  Level Estimated
Sun 10:13:00 PM 25.1170 104.8515 270° West  Level Estimated
Sun 10:14:00 PM 25.1168 104.7557 270° West  Level Estimated
Sun 10:15:00 PM 25.1166 104.6599 270° West  Level Estimated
Sun 10:16:00 PM 25.1163 104.5640 270° West  Level Estimated
Sun 10:17:00 PM 25.1160 104.4682 270° West  Level Estimated
Sun 10:18:00 PM 25.1156 104.3724 270° West  Level Estimated
Sun 10:19:00 PM 25.1151 104.2766 270° West  Level Estimated
Sun 10:20:00 PM 25.1146 104.1808 270° West  Level Estimated
Sun 10:21:00 PM 25.1140 104.0850 270° West  Level Estimated
Sun 10:22:00 PM 25.1133 103.9892 270° West  Level Estimated
Sun 10:23:00 PM 25.1126 103.8934 270° West  Level Estimated
Sun 10:24:00 PM 25.1118 103.7976 270° West  Level Estimated
Sun 10:25:00 PM 25.1110 103.7018 269° West  Level Estimated
Sun 10:26:00 PM 25.1101 103.6060 269° West  Level Estimated
Sun 10:27:00 PM 25.1091 103.5102 269° West  Level Estimated
Sun 10:28:00 PM 25.1081 103.4145 269° West  Level Estimated
Sun 10:29:00 PM 25.1070 103.3187 269° West  Level Estimated
Sun 10:30:00 PM 25.1059 103.2229 269° West  Level Estimated
Sun 10:31:00 PM 25.1046 103.1271 269° West  Level Estimated
Sun 10:32:00 PM 25.1034 103.0313 269° West  Level Estimated
Sun 10:33:00 PM 25.1020 102.9355 269° West  Level Estimated
Sun 10:34:00 PM 25.1019 102.9292 269° West  Level Estimated
Sun 10:35:00 PM 25.1019 102.9292 North  Level Estimated
Sun 10:36:00 PM 25.1019 102.9292 North  Level Estimated
Sun 10:37:00 PM 25.1019 102.9292 North  Level Estimated
Sun 10:38:00 PM 25.1019 102.9292 North  Level Estimated
Sun 10:39:00 PM 25.1019 102.9292 North  Level Estimated
Sun 10:40:00 PM 25.1019 102.9292 North  Level Estimated
Sun 10:41:00 PM 25.1019 102.9292 North  Level Estimated
Sun 10:42:00 PM 25.1019 102.9292 North  Level Estimated
Sun 10:43:00 PM 25.1019 102.9292 North  Level Estimated
Sun 10:44:00 PM 25.1019 102.9292 North  Level Estimated
Sun 10:45:00 PM 25.1019 102.9292 North  Level Estimated
Sun 10:46:00 PM 25.1019 102.9292 North  Level Estimated
Sun 10:47:00 PM 25.1019 102.9292 North  Level Estimated
Sun 10:48:00 PM 25.1019 102.9292 North  Level Estimated
Sun 10:49:00 PM 25.1019 102.9292 North  Level Estimated

Login

Don't have an account? Register now (free) for customized features, flight alerts, and more!